sensor_id;sensor_type;location;lat;lon;timestamp;pressure;altitude;pressure_sealevel;temperature;humidity
43480;BME280;29067;35.492;-97.520;2022-09-23T00:00:59;97429.04;;;22.74;37.98
43480;BME280;29067;35.492;-97.520;2022-09-23T00:03:28;97428.40;;;22.37;38.43
43480;BME280;29067;35.492;-97.520;2022-09-23T00:05:58;97425.70;;;21.58;39.69
43480;BME280;29067;35.492;-97.520;2022-09-23T00:08:26;97431.38;;;22.22;39.23
43480;BME280;29067;35.492;-97.520;2022-09-23T00:10:55;97435.53;;;22.21;38.56
43480;BME280;29067;35.492;-97.520;2022-09-23T00:13:23;97436.45;;;19.90;41.19
43480;BME280;29067;35.492;-97.520;2022-09-23T00:15:52;97438.86;;;18.95;42.43
43480;BME280;29067;35.492;-97.520;2022-09-23T00:18:20;97442.55;;;20.95;41.62
43480;BME280;29067;35.492;-97.520;2022-09-23T00:20:48;97445.13;;;20.66;41.31
43480;BME280;29067;35.492;-97.520;2022-09-23T00:23:16;97447.14;;;19.35;42.52
43480;BME280;29067;35.492;-97.520;2022-09-23T00:25:43;97447.44;;;20.16;42.48
43480;BME280;29067;35.492;-97.520;2022-09-23T00:28:11;97450.19;;;18.95;43.83
43480;BME280;29067;35.492;-97.520;2022-09-23T00:30:40;97455.32;;;18.47;45.20
43480;BME280;29067;35.492;-97.520;2022-09-23T00:33:08;97451.00;;;18.56;44.58
43480;BME280;29067;35.492;-97.520;2022-09-23T00:35:35;97445.94;;;19.68;43.72
43480;BME280;29067;35.492;-97.520;2022-09-23T00:38:03;97450.03;;;18.70;44.46
43480;BME280;29067;35.492;-97.520;2022-09-23T00:40:42;97457.19;;;17.66;46.52
43480;BME280;29067;35.492;-97.520;2022-09-23T00:43:11;97459.75;;;17.27;48.13
43480;BME280;29067;35.492;-97.520;2022-09-23T00:45:39;97457.95;;;18.43;47.40
43480;BME280;29067;35.492;-97.520;2022-09-23T00:48:11;97458.18;;;18.07;47.32
43480;BME280;29067;35.492;-97.520;2022-09-23T00:50:44;97462.15;;;18.98;46.64
43480;BME280;29067;35.492;-97.520;2022-09-23T00:53:17;97461.12;;;17.41;47.38
43480;BME280;29067;35.492;-97.520;2022-09-23T00:55:49;97465.14;;;17.82;47.38
43480;BME280;29067;35.492;-97.520;2022-09-23T00:58:20;97469.18;;;18.16;46.76
43480;BME280;29067;35.492;-97.520;2022-09-23T01:00:50;97471.18;;;17.51;47.69
43480;BME280;29067;35.492;-97.520;2022-09-23T01:03:17;97474.86;;;16.87;48.86
43480;BME280;29067;35.492;-97.520;2022-09-23T01:05:46;97477.57;;;17.41;48.28
43480;BME280;29067;35.492;-97.520;2022-09-23T01:08:15;97477.00;;;17.83;48.16
43480;BME280;29067;35.492;-97.520;2022-09-23T01:10:53;97477.78;;;17.62;48.32
43480;BME280;29067;35.492;-97.520;2022-09-23T01:13:31;97477.97;;;17.34;49.76
43480;BME280;29067;35.492;-97.520;2022-09-23T01:16:07;97478.74;;;17.45;49.83
43480;BME280;29067;35.492;-97.520;2022-09-23T01:18:42;97482.58;;;17.66;48.84
43480;BME280;29067;35.492;-97.520;2022-09-23T01:21:24;97482.87;;;17.48;49.46
43480;BME280;29067;35.492;-97.520;2022-09-23T01:24:33;97486.85;;;17.72;48.02
43480;BME280;29067;35.492;-97.520;2022-09-23T01:27:50;97495.17;;;17.59;47.36
43480;BME280;29067;35.492;-97.520;2022-09-23T01:30:42;97493.97;;;16.73;50.35
43480;BME280;29067;35.492;-97.520;2022-09-23T01:33:17;97498.54;;;16.82;51.15
43480;BME280;29067;35.492;-97.520;2022-09-23T01:35:57;97502.01;;;17.64;49.10
43480;BME280;29067;35.492;-97.520;2022-09-23T01:38:34;97506.31;;;18.34;48.85
43480;BME280;29067;35.492;-97.520;2022-09-23T01:41:15;97509.72;;;16.56;50.76
43480;BME280;29067;35.492;-97.520;2022-09-23T01:43:52;97513.23;;;17.00;51.57
43480;BME280;29067;35.492;-97.520;2022-09-23T01:46:26;97520.81;;;17.03;51.38
43480;BME280;29067;35.492;-97.520;2022-09-23T01:49:00;97525.45;;;16.80;50.64
43480;BME280;29067;35.492;-97.520;2022-09-23T01:51:32;97533.30;;;17.02;50.86
43480;BME280;29067;35.492;-97.520;2022-09-23T01:54:07;97538.98;;;16.77;51.36
43480;BME280;29067;35.492;-97.520;2022-09-23T01:56:41;97544.29;;;17.16;51.35
43480;BME280;29067;35.492;-97.520;2022-09-23T01:59:15;97546.09;;;17.64;50.46
43480;BME280;29067;35.492;-97.520;2022-09-23T02:01:49;97553.39;;;16.02;53.08
43480;BME280;29067;35.492;-97.520;2022-09-23T02:04:26;97555.82;;;16.34;52.44
43480;BME280;29067;35.492;-97.520;2022-09-23T02:06:56;97564.07;;;16.33;52.12
43480;BME280;29067;35.492;-97.520;2022-09-23T02:09:30;97568.40;;;16.83;50.88
43480;BME280;29067;35.492;-97.520;2022-09-23T02:12:06;97572.99;;;16.66;51.35
43480;BME280;29067;35.492;-97.520;2022-09-23T02:14:43;97578.79;;;16.16;51.98
43480;BME280;29067;35.492;-97.520;2022-09-23T02:17:15;97580.14;;;15.24;53.65
43480;BME280;29067;35.492;-97.520;2022-09-23T02:19:46;97582.15;;;15.88;52.09
43480;BME280;29067;35.492;-97.520;2022-09-23T02:22:19;97586.61;;;16.80;50.88
43480;BME280;29067;35.492;-97.520;2022-09-23T02:24:48;97593.24;;;16.61;51.65
43480;BME280;29067;35.492;-97.520;2022-09-23T02:27:24;97593.64;;;16.10;51.90
43480;BME280;29067;35.492;-97.520;2022-09-23T02:30:02;97593.47;;;17.09;50.50
43480;BME280;29067;35.492;-97.520;2022-09-23T02:32:36;97597.00;;;16.87;50.84
43480;BME280;29067;35.492;-97.520;2022-09-23T02:35:15;97600.23;;;16.38;51.31
43480;BME280;29067;35.492;-97.520;2022-09-23T02:37:50;97597.71;;;17.25;50.28
43480;BME280;29067;35.492;-97.520;2022-09-23T02:40:29;97598.10;;;17.28;50.97
43480;BME280;29067;35.492;-97.520;2022-09-23T02:43:03;97599.32;;;16.99;50.52
43480;BME280;29067;35.492;-97.520;2022-09-23T02:45:33;97599.75;;;16.37;51.66
43480;BME280;29067;35.492;-97.520;2022-09-23T02:48:05;97599.35;;;16.32;51.20
43480;BME280;29067;35.492;-97.520;2022-09-23T02:50:36;97598.62;;;16.62;50.77
43480;BME280;29067;35.492;-97.520;2022-09-23T02:53:05;97597.93;;;15.98;51.63
43480;BME280;29067;35.492;-97.520;2022-09-23T02:55:33;97599.85;;;17.73;49.19
43480;BME280;29067;35.492;-97.520;2022-09-23T02:58:02;97601.89;;;16.89;49.30
43480;BME280;29067;35.492;-97.520;2022-09-23T03:00:41;97603.38;;;17.72;49.48
43480;BME280;29067;35.492;-97.520;2022-09-23T03:03:23;97607.76;;;16.88;49.94
43480;BME280;29067;35.492;-97.520;2022-09-23T03:05:58;97610.32;;;16.34;50.52
43480;BME280;29067;35.492;-97.520;2022-09-23T03:08:40;97607.95;;;16.01;51.25
43480;BME280;29067;35.492;-97.520;2022-09-23T03:11:11;97607.80;;;16.47;50.09
43480;BME280;29067;35.492;-97.520;2022-09-23T03:13:51;97606.63;;;16.18;50.89
43480;BME280;29067;35.492;-97.520;2022-09-23T03:16:29;97606.42;;;15.55;52.97
43480;BME280;29067;35.492;-97.520;2022-09-23T03:19:07;97604.83;;;16.24;51.13
43480;BME280;29067;35.492;-97.520;2022-09-23T03:21:48;97607.71;;;16.36;50.63
43480;BME280;29067;35.492;-97.520;2022-09-23T03:24:25;97611.46;;;16.94;50.36
43480;BME280;29067;35.492;-97.520;2022-09-23T03:27:03;97610.32;;;15.96;51.20
43480;BME280;29067;35.492;-97.520;2022-09-23T03:29:33;97609.33;;;16.55;50.86
43480;BME280;29067;35.492;-97.520;2022-09-23T03:32:01;97607.49;;;16.86;49.81
43480;BME280;29067;35.492;-97.520;2022-09-23T03:34:31;97608.30;;;16.73;49.96
43480;BME280;29067;35.492;-97.520;2022-09-23T03:37:03;97609.19;;;16.74;50.05
43480;BME280;29067;35.492;-97.520;2022-09-23T03:39:37;97607.60;;;15.08;52.44
43480;BME280;29067;35.492;-97.520;2022-09-23T03:42:10;97609.02;;;15.17;52.39
43480;BME280;29067;35.492;-97.520;2022-09-23T03:44:42;97604.24;;;16.69;50.24
43480;BME280;29067;35.492;-97.520;2022-09-23T03:47:11;97603.55;;;16.10;50.75
43480;BME280;29067;35.492;-97.520;2022-09-23T03:49:41;97600.20;;;16.97;50.34
43480;BME280;29067;35.492;-97.520;2022-09-23T03:52:10;97603.03;;;16.28;50.60
43480;BME280;29067;35.492;-97.520;2022-09-23T03:54:37;97603.61;;;16.83;51.16
43480;BME280;29067;35.492;-97.520;2022-09-23T03:57:05;97598.78;;;17.18;49.52
43480;BME280;29067;35.492;-97.520;2022-09-23T03:59:34;97603.41;;;16.78;50.14
43480;BME280;29067;35.492;-97.520;2022-09-23T04:02:02;97605.66;;;16.56;49.95
43480;BME280;29067;35.492;-97.520;2022-09-23T04:04:30;97607.75;;;16.79;49.80
43480;BME280;29067;35.492;-97.520;2022-09-23T04:06:58;97604.22;;;16.21;51.09
43480;BME280;29067;35.492;-97.520;2022-09-23T04:09:26;97601.40;;;15.83;51.71
43480;BME280;29067;35.492;-97.520;2022-09-23T04:11:54;97595.95;;;17.32;48.82
43480;BME280;29067;35.492;-97.520;2022-09-23T04:14:23;97591.44;;;17.46;47.99
43480;BME280;29067;35.492;-97.520;2022-09-23T04:16:51;97589.12;;;17.13;48.51
43480;BME280;29067;35.492;-97.520;2022-09-23T04:19:19;97583.23;;;18.28;47.19
43480;BME280;29067;35.492;-97.520;2022-09-23T04:21:47;97588.87;;;16.74;49.14
43480;BME280;29067;35.492;-97.520;2022-09-23T04:24:16;97584.13;;;17.12;48.57
43480;BME280;29067;35.492;-97.520;2022-09-23T04:26:44;97585.50;;;17.25;48.14
43480;BME280;29067;35.492;-97.520;2022-09-23T04:29:11;97583.32;;;16.92;48.24
43480;BME280;29067;35.492;-97.520;2022-09-23T04:31:39;97583.45;;;17.43;48.28
43480;BME280;29067;35.492;-97.520;2022-09-23T04:34:07;97582.88;;;17.07;48.07
43480;BME280;29067;35.492;-97.520;2022-09-23T04:36:35;97583.69;;;18.65;46.67
43480;BME280;29067;35.492;-97.520;2022-09-23T04:39:03;97585.60;;;17.80;47.64
43480;BME280;29067;35.492;-97.520;2022-09-23T04:41:32;97590.27;;;17.14;48.09
43480;BME280;29067;35.492;-97.520;2022-09-23T04:43:59;97591.78;;;18.11;47.29
43480;BME280;29067;35.492;-97.520;2022-09-23T04:46:28;97599.98;;;17.94;48.08
43480;BME280;29067;35.492;-97.520;2022-09-23T04:48:55;97602.16;;;17.20;48.12
43480;BME280;29067;35.492;-97.520;2022-09-23T04:51:24;97605.24;;;17.26;47.71
43480;BME280;29067;35.492;-97.520;2022-09-23T04:53:53;97602.67;;;17.43;47.25
43480;BME280;29067;35.492;-97.520;2022-09-23T04:56:23;97600.10;;;17.35;48.94
43480;BME280;29067;35.492;-97.520;2022-09-23T04:58:51;97594.85;;;16.55;48.44
43480;BME280;29067;35.492;-97.520;2022-09-23T05:01:21;97593.29;;;17.31;48.13
43480;BME280;29067;35.492;-97.520;2022-09-23T05:03:51;97594.13;;;16.19;50.07
43480;BME280;29067;35.492;-97.520;2022-09-23T05:06:20;97587.77;;;16.73;49.00
43480;BME280;29067;35.492;-97.520;2022-09-23T05:08:52;97587.30;;;17.28;48.99
43480;BME280;29067;35.492;-97.520;2022-09-23T05:11:21;97588.06;;;17.64;48.36
43480;BME280;29067;35.492;-97.520;2022-09-23T05:13:52;97584.05;;;17.64;47.74
43480;BME280;29067;35.492;-97.520;2022-09-23T05:16:21;97582.89;;;16.76;49.04
43480;BME280;29067;35.492;-97.520;2022-09-23T05:18:51;97581.27;;;16.90;48.32
43480;BME280;29067;35.492;-97.520;2022-09-23T05:21:22;97580.81;;;15.86;49.73
43480;BME280;29067;35.492;-97.520;2022-09-23T05:23:51;97572.61;;;16.88;49.48
43480;BME280;29067;35.492;-97.520;2022-09-23T05:26:20;97572.55;;;17.29;48.05
43480;BME280;29067;35.492;-97.520;2022-09-23T05:28:48;97572.32;;;17.46;48.05
43480;BME280;29067;35.492;-97.520;2022-09-23T05:31:17;97577.46;;;16.13;49.46
43480;BME280;29067;35.492;-97.520;2022-09-23T05:33:49;97577.98;;;15.75;50.90
43480;BME280;29067;35.492;-97.520;2022-09-23T05:36:17;97578.42;;;15.38;51.33
43480;BME280;29067;35.492;-97.520;2022-09-23T05:38:45;97575.49;;;17.39;49.26
43480;BME280;29067;35.492;-97.520;2022-09-23T05:41:13;97577.52;;;16.83;49.21
43480;BME280;29067;35.492;-97.520;2022-09-23T05:43:41;97580.15;;;17.14;49.35
43480;BME280;29067;35.492;-97.520;2022-09-23T05:46:12;97576.37;;;18.12;47.42
43480;BME280;29067;35.492;-97.520;2022-09-23T05:48:41;97581.79;;;16.19;50.62
43480;BME280;29067;35.492;-97.520;2022-09-23T05:51:13;97580.19;;;16.26;50.54
43480;BME280;29067;35.492;-97.520;2022-09-23T05:53:41;97580.64;;;16.81;49.00
43480;BME280;29067;35.492;-97.520;2022-09-23T05:56:10;97580.78;;;16.08;51.00
43480;BME280;29067;35.492;-97.520;2022-09-23T05:58:38;97578.22;;;15.75;52.00
43480;BME280;29067;35.492;-97.520;2022-09-23T06:01:11;97574.75;;;16.55;51.35
43480;BME280;29067;35.492;-97.520;2022-09-23T06:03:40;97577.45;;;16.13;51.53
43480;BME280;29067;35.492;-97.520;2022-09-23T06:06:11;97574.28;;;16.66;49.71
43480;BME280;29067;35.492;-97.520;2022-09-23T06:08:39;97567.63;;;16.74;48.97
43480;BME280;29067;35.492;-97.520;2022-09-23T06:11:07;97569.64;;;16.60;49.21
43480;BME280;29067;35.492;-97.520;2022-09-23T06:13:36;97568.12;;;16.49;49.54
43480;BME280;29067;35.492;-97.520;2022-09-23T06:16:04;97561.72;;;16.62;48.86
43480;BME280;29067;35.492;-97.520;2022-09-23T06:18:33;97566.89;;;15.83;50.68
43480;BME280;29067;35.492;-97.520;2022-09-23T06:21:02;97569.19;;;16.08;49.52
43480;BME280;29067;35.492;-97.520;2022-09-23T06:23:30;97561.59;;;16.84;48.95
43480;BME280;29067;35.492;-97.520;2022-09-23T06:26:00;97560.57;;;16.11;49.50
43480;BME280;29067;35.492;-97.520;2022-09-23T06:28:29;97550.68;;;15.71;51.35
43480;BME280;29067;35.492;-97.520;2022-09-23T06:30:58;97547.46;;;17.06;48.93
43480;BME280;29067;35.492;-97.520;2022-09-23T06:33:27;97545.19;;;17.04;48.91
43480;BME280;29067;35.492;-97.520;2022-09-23T06:35:56;97543.69;;;15.87;50.72
43480;BME280;29067;35.492;-97.520;2022-09-23T06:38:24;97547.01;;;15.52;51.00
43480;BME280;29067;35.492;-97.520;2022-09-23T06:40:53;97543.38;;;16.73;49.24
43480;BME280;29067;35.492;-97.520;2022-09-23T06:43:23;97539.05;;;16.71;49.45
43480;BME280;29067;35.492;-97.520;2022-09-23T06:45:52;97542.00;;;16.95;49.88
43480;BME280;29067;35.492;-97.520;2022-09-23T06:48:21;97544.12;;;15.43;50.41
43480;BME280;29067;35.492;-97.520;2022-09-23T06:50:49;97543.83;;;16.39;50.12
43480;BME280;29067;35.492;-97.520;2022-09-23T06:53:17;97538.45;;;16.47;49.48
43480;BME280;29067;35.492;-97.520;2022-09-23T06:55:45;97532.51;;;16.62;49.48
43480;BME280;29067;35.492;-97.520;2022-09-23T06:58:12;97528.98;;;16.20;49.26
43480;BME280;29067;35.492;-97.520;2022-09-23T07:00:40;97522.06;;;17.30;47.85
43480;BME280;29067;35.492;-97.520;2022-09-23T07:03:08;97519.01;;;15.74;49.92
43480;BME280;29067;35.492;-97.520;2022-09-23T07:05:36;97518.57;;;15.57;50.00
43480;BME280;29067;35.492;-97.520;2022-09-23T07:08:06;97514.80;;;15.68;49.94
43480;BME280;29067;35.492;-97.520;2022-09-23T07:10:34;97511.10;;;16.05;50.43
43480;BME280;29067;35.492;-97.520;2022-09-23T07:13:02;97506.62;;;16.58;49.31
43480;BME280;29067;35.492;-97.520;2022-09-23T07:15:31;97508.48;;;15.93;49.99
43480;BME280;29067;35.492;-97.520;2022-09-23T07:17:58;97505.33;;;16.15;50.13
43480;BME280;29067;35.492;-97.520;2022-09-23T07:20:26;97510.21;;;16.07;50.09
43480;BME280;29067;35.492;-97.520;2022-09-23T07:22:54;97517.66;;;15.30;51.87
43480;BME280;29067;35.492;-97.520;2022-09-23T07:25:23;97519.20;;;15.59;51.50
43480;BME280;29067;35.492;-97.520;2022-09-23T07:27:50;97524.49;;;14.72;52.75
43480;BME280;29067;35.492;-97.520;2022-09-23T07:30:18;97517.74;;;16.03;50.42
43480;BME280;29067;35.492;-97.520;2022-09-23T07:32:46;97518.81;;;15.07;51.95
43480;BME280;29067;35.492;-97.520;2022-09-23T07:35:14;97511.94;;;15.79;50.20
43480;BME280;29067;35.492;-97.520;2022-09-23T07:37:41;97511.41;;;16.09;50.66
43480;BME280;29067;35.492;-97.520;2022-09-23T07:40:09;97506.64;;;16.23;49.36
43480;BME280;29067;35.492;-97.520;2022-09-23T07:42:37;97503.13;;;15.84;49.70
43480;BME280;29067;35.492;-97.520;2022-09-23T07:45:06;97503.69;;;15.26;50.22
43480;BME280;29067;35.492;-97.520;2022-09-23T07:47:35;97503.62;;;15.60;50.83
43480;BME280;29067;35.492;-97.520;2022-09-23T07:50:04;97507.56;;;16.13;49.73
43480;BME280;29067;35.492;-97.520;2022-09-23T07:52:34;97512.47;;;15.56;49.86
43480;BME280;29067;35.492;-97.520;2022-09-23T07:55:03;97512.08;;;15.83;50.98
43480;BME280;29067;35.492;-97.520;2022-09-23T07:57:32;97512.37;;;14.33;52.19
43480;BME280;29067;35.492;-97.520;2022-09-23T08:00:00;97511.73;;;13.87;54.33
43480;BME280;29067;35.492;-97.520;2022-09-23T08:02:28;97499.55;;;15.10;51.12
43480;BME280;29067;35.492;-97.520;2022-09-23T08:04:55;97495.82;;;15.00;51.65
43480;BME280;29067;35.492;-97.520;2022-09-23T08:07:23;97496.52;;;15.13;52.45
43480;BME280;29067;35.492;-97.520;2022-09-23T08:09:51;97497.99;;;14.93;50.55
43480;BME280;29067;35.492;-97.520;2022-09-23T08:12:19;97496.32;;;14.46;52.04
43480;BME280;29067;35.492;-97.520;2022-09-23T08:14:46;97498.53;;;13.97;51.93
43480;BME280;29067;35.492;-97.520;2022-09-23T08:17:14;97497.97;;;14.04;53.40
43480;BME280;29067;35.492;-97.520;2022-09-23T08:19:42;97492.81;;;14.47;52.17
43480;BME280;29067;35.492;-97.520;2022-09-23T08:22:09;97487.72;;;14.64;51.03
43480;BME280;29067;35.492;-97.520;2022-09-23T08:24:38;97483.35;;;15.75;50.70
43480;BME280;29067;35.492;-97.520;2022-09-23T08:27:06;97485.49;;;14.37;51.67
43480;BME280;29067;35.492;-97.520;2022-09-23T08:29:34;97481.09;;;15.38;50.50
43480;BME280;29067;35.492;-97.520;2022-09-23T08:32:02;97482.53;;;14.36;51.70
43480;BME280;29067;35.492;-97.520;2022-09-23T08:34:30;97482.06;;;15.19;50.86
43480;BME280;29067;35.492;-97.520;2022-09-23T08:36:58;97495.36;;;14.14;52.86
43480;BME280;29067;35.492;-97.520;2022-09-23T08:39:25;97498.50;;;12.73;54.60
43480;BME280;29067;35.492;-97.520;2022-09-23T08:42:04;97497.25;;;13.19;54.12
43480;BME280;29067;35.492;-97.520;2022-09-23T08:44:44;97495.51;;;13.37;53.95
43480;BME280;29067;35.492;-97.520;2022-09-23T08:47:17;97496.72;;;13.36;54.17
43480;BME280;29067;35.492;-97.520;2022-09-23T08:49:52;97503.16;;;14.19;52.65
43480;BME280;29067;35.492;-97.520;2022-09-23T08:52:26;97503.31;;;12.72;55.76
43480;BME280;29067;35.492;-97.520;2022-09-23T08:54:55;97501.57;;;13.31;53.97
43480;BME280;29067;35.492;-97.520;2022-09-23T08:57:33;97495.21;;;12.24;54.98
43480;BME280;29067;35.492;-97.520;2022-09-23T09:00:05;97500.19;;;14.24;53.66
43480;BME280;29067;35.492;-97.520;2022-09-23T09:02:34;97499.55;;;13.82;53.35
43480;BME280;29067;35.492;-97.520;2022-09-23T09:05:06;97492.84;;;14.19;51.86
43480;BME280;29067;35.492;-97.520;2022-09-23T09:07:36;97488.82;;;13.56;51.24
43480;BME280;29067;35.492;-97.520;2022-09-23T09:10:10;97488.75;;;13.52;52.94
43480;BME280;29067;35.492;-97.520;2022-09-23T09:12:43;97485.49;;;14.22;50.98
43480;BME280;29067;35.492;-97.520;2022-09-23T09:15:14;97485.09;;;13.72;52.01
43480;BME280;29067;35.492;-97.520;2022-09-23T09:17:50;97491.21;;;13.42;53.02
43480;BME280;29067;35.492;-97.520;2022-09-23T09:20:27;97486.54;;;13.51;52.20
43480;BME280;29067;35.492;-97.520;2022-09-23T09:22:57;97478.63;;;14.49;50.45
43480;BME280;29067;35.492;-97.520;2022-09-23T09:25:40;97474.45;;;14.91;50.30
43480;BME280;29067;35.492;-97.520;2022-09-23T09:28:14;97474.73;;;14.81;50.01
43480;BME280;29067;35.492;-97.520;2022-09-23T09:30:44;97471.72;;;15.42;48.84
43480;BME280;29067;35.492;-97.520;2022-09-23T09:33:15;97481.26;;;13.55;51.36
43480;BME280;29067;35.492;-97.520;2022-09-23T09:36:10;97480.50;;;14.35;49.65
43480;BME280;29067;35.492;-97.520;2022-09-23T09:38:41;97491.27;;;13.57;50.83
43480;BME280;29067;35.492;-97.520;2022-09-23T09:41:13;97495.97;;;13.54;52.16
43480;BME280;29067;35.492;-97.520;2022-09-23T09:43:44;97492.07;;;14.64;50.09
43480;BME280;29067;35.492;-97.520;2022-09-23T09:46:35;97479.06;;;15.35;48.84
43480;BME280;29067;35.492;-97.520;2022-09-23T09:49:13;97486.31;;;13.50;50.58
43480;BME280;29067;35.492;-97.520;2022-09-23T09:51:43;97488.74;;;13.97;50.26
43480;BME280;29067;35.492;-97.520;2022-09-23T09:54:22;97489.65;;;16.10;47.51
43480;BME280;29067;35.492;-97.520;2022-09-23T09:56:50;97497.60;;;14.90;49.62
43480;BME280;29067;35.492;-97.520;2022-09-23T09:59:23;97489.71;;;14.97;49.35
43480;BME280;29067;35.492;-97.520;2022-09-23T10:02:12;97493.97;;;13.30;50.39
43480;BME280;29067;35.492;-97.520;2022-09-23T10:04:48;97493.29;;;13.79;49.26
43480;BME280;29067;35.492;-97.520;2022-09-23T10:07:24;97498.27;;;14.25;50.69
43480;BME280;29067;35.492;-97.520;2022-09-23T10:09:53;97505.13;;;14.22;50.30
43480;BME280;29067;35.492;-97.520;2022-09-23T10:12:21;97499.47;;;14.70;48.59
43480;BME280;29067;35.492;-97.520;2022-09-23T10:14:54;97503.60;;;14.32;50.02
43480;BME280;29067;35.492;-97.520;2022-09-23T10:17:25;97504.41;;;13.70;50.54
43480;BME280;29067;35.492;-97.520;2022-09-23T10:19:58;97499.98;;;13.78;51.38
43480;BME280;29067;35.492;-97.520;2022-09-23T10:22:32;97503.28;;;12.96;52.66
43480;BME280;29067;35.492;-97.520;2022-09-23T10:25:06;97502.45;;;13.49;51.76
43480;BME280;29067;35.492;-97.520;2022-09-23T10:27:36;97502.80;;;13.74;50.86
43480;BME280;29067;35.492;-97.520;2022-09-23T10:30:10;97509.64;;;13.04;52.04
43480;BME280;29067;35.492;-97.520;2022-09-23T10:32:45;97508.67;;;13.35;52.26
43480;BME280;29067;35.492;-97.520;2022-09-23T10:35:15;97510.56;;;13.44;52.30
43480;BME280;29067;35.492;-97.520;2022-09-23T10:37:46;97504.10;;;12.83;53.15
43480;BME280;29067;35.492;-97.520;2022-09-23T10:40:18;97501.26;;;13.35;51.77
43480;BME280;29067;35.492;-97.520;2022-09-23T10:42:58;97492.88;;;12.95;53.20
43480;BME280;29067;35.492;-97.520;2022-09-23T10:45:32;97497.85;;;13.14;52.17
43480;BME280;29067;35.492;-97.520;2022-09-23T10:48:08;97489.43;;;13.03;52.37
43480;BME280;29067;35.492;-97.520;2022-09-23T10:50:42;97494.04;;;12.87;52.66
43480;BME280;29067;35.492;-97.520;2022-09-23T10:53:18;97498.79;;;13.16;52.61
43480;BME280;29067;35.492;-97.520;2022-09-23T10:56:03;97501.14;;;12.55;53.29
43480;BME280;29067;35.492;-97.520;2022-09-23T10:58:51;97499.14;;;13.35;52.03
43480;BME280;29067;35.492;-97.520;2022-09-23T11:03:24;97491.33;;;13.69;51.18
43480;BME280;29067;35.492;-97.520;2022-09-23T11:06:07;97495.10;;;13.95;50.80
43480;BME280;29067;35.492;-97.520;2022-09-23T11:08:53;97493.80;;;14.88;49.55
43480;BME280;29067;35.492;-97.520;2022-09-23T11:11:33;97495.15;;;13.82;51.48
43480;BME280;29067;35.492;-97.520;2022-09-23T11:14:15;97495.97;;;14.02;51.11
43480;BME280;29067;35.492;-97.520;2022-09-23T11:17:02;97497.19;;;13.06;53.31
43480;BME280;29067;35.492;-97.520;2022-09-23T11:19:53;97494.28;;;14.10;51.31
43480;BME280;29067;35.492;-97.520;2022-09-23T11:22:35;97490.15;;;12.61;53.69
43480;BME280;29067;35.492;-97.520;2022-09-23T11:25:20;97489.12;;;13.56;53.69
43480;BME280;29067;35.492;-97.520;2022-09-23T11:28:11;97487.37;;;13.40;52.70
43480;BME280;29067;35.492;-97.520;2022-09-23T11:30:52;97484.99;;;13.15;53.79
43480;BME280;29067;35.492;-97.520;2022-09-23T11:33:33;97479.77;;;13.11;53.27
43480;BME280;29067;35.492;-97.520;2022-09-23T11:36:07;97472.34;;;13.60;54.28
43480;BME280;29067;35.492;-97.520;2022-09-23T11:38:41;97467.72;;;10.86;60.97
43480;BME280;29067;35.492;-97.520;2022-09-23T11:41:16;97468.43;;;11.15;64.09
43480;BME280;29067;35.492;-97.520;2022-09-23T11:43:49;97469.24;;;12.17;61.21
43480;BME280;29067;35.492;-97.520;2022-09-23T11:46:29;97469.46;;;12.29;59.76
43480;BME280;29067;35.492;-97.520;2022-09-23T11:49:06;97471.15;;;12.22;59.27
43480;BME280;29067;35.492;-97.520;2022-09-23T11:51:40;97467.46;;;12.08;58.70
43480;BME280;29067;35.492;-97.520;2022-09-23T11:54:15;97462.17;;;11.47;60.98
43480;BME280;29067;35.492;-97.520;2022-09-23T11:56:49;97457.10;;;12.47;58.37
43480;BME280;29067;35.492;-97.520;2022-09-23T11:59:27;97461.61;;;10.75;63.40
43480;BME280;29067;35.492;-97.520;2022-09-23T12:02:02;97461.02;;;13.21;57.52
43480;BME280;29067;35.492;-97.520;2022-09-23T12:04:34;97466.61;;;13.56;55.16
43480;BME280;29067;35.492;-97.520;2022-09-23T12:07:11;97469.65;;;13.28;55.64
43480;BME280;29067;35.492;-97.520;2022-09-23T12:09:48;97467.88;;;13.02;55.83
43480;BME280;29067;35.492;-97.520;2022-09-23T12:12:27;97466.68;;;12.64;55.43
43480;BME280;29067;35.492;-97.520;2022-09-23T12:15:02;97464.18;;;12.82;55.20
43480;BME280;29067;35.492;-97.520;2022-09-23T12:17:44;97466.24;;;13.20;54.28
43480;BME280;29067;35.492;-97.520;2022-09-23T12:20:34;97471.28;;;12.13;56.00
43480;BME280;29067;35.492;-97.520;2022-09-23T12:23:18;97468.04;;;12.99;53.40
43480;BME280;29067;35.492;-97.520;2022-09-23T12:25:54;97467.60;;;13.52;54.05
43480;BME280;29067;35.492;-97.520;2022-09-23T12:28:27;97471.51;;;12.45;56.26
43480;BME280;29067;35.492;-97.520;2022-09-23T12:30:59;97475.18;;;13.92;54.57
43480;BME280;29067;35.492;-97.520;2022-09-23T12:33:30;97478.27;;;13.48;54.18
43480;BME280;29067;35.492;-97.520;2022-09-23T12:36:03;97477.68;;;14.49;53.26
43480;BME280;29067;35.492;-97.520;2022-09-23T12:38:35;97480.36;;;13.85;53.23
43480;BME280;29067;35.492;-97.520;2022-09-23T12:41:19;97475.69;;;14.69;51.56
43480;BME280;29067;35.492;-97.520;2022-09-23T12:43:52;97478.95;;;13.76;51.78
43480;BME280;29067;35.492;-97.520;2022-09-23T12:46:22;97483.98;;;12.65;53.94
43480;BME280;29067;35.492;-97.520;2022-09-23T12:49:21;97486.96;;;14.14;51.92
43480;BME280;29067;35.492;-97.520;2022-09-23T12:52:12;97489.28;;;12.69;53.06
43480;BME280;29067;35.492;-97.520;2022-09-23T12:54:41;97488.47;;;11.83;56.61
43480;BME280;29067;35.492;-97.520;2022-09-23T12:57:10;97484.82;;;12.73;54.87
43480;BME280;29067;35.492;-97.520;2022-09-23T13:01:05;97489.39;;;14.66;51.74
43480;BME280;29067;35.492;-97.520;2022-09-23T13:03:33;97490.08;;;13.97;51.62
43480;BME280;29067;35.492;-97.520;2022-09-23T13:06:01;97480.98;;;14.20;51.48
43480;BME280;29067;35.492;-97.520;2022-09-23T13:08:29;97479.35;;;14.66;50.36
43480;BME280;29067;35.492;-97.520;2022-09-23T13:11:00;97483.89;;;13.18;53.00